sensor_id;sensor_type;location;lat;lon;timestamp;temperature;humidity
19799;DHT22;10059;59.850;10.454;2023-07-28T00:01:42;12.20;99.90
19799;DHT22;10059;59.850;10.454;2023-07-28T00:04:09;12.20;99.90
19799;DHT22;10059;59.850;10.454;2023-07-28T00:06:36;12.20;99.90
19799;DHT22;10059;59.850;10.454;2023-07-28T00:09:03;12.20;99.90
19799;DHT22;10059;59.850;10.454;2023-07-28T00:11:30;12.30;99.90
19799;DHT22;10059;59.850;10.454;2023-07-28T00:13:56;12.20;99.90
19799;DHT22;10059;59.850;10.454;2023-07-28T00:16:25;12.30;99.90
19799;DHT22;10059;59.850;10.454;2023-07-28T00:18:51;12.20;99.90
19799;DHT22;10059;59.850;10.454;2023-07-28T00:21:18;12.30;99.90
19799;DHT22;10059;59.850;10.454;2023-07-28T00:23:45;12.30;99.90
19799;DHT22;10059;59.850;10.454;2023-07-28T00:26:12;12.30;99.90
19799;DHT22;10059;59.850;10.454;2023-07-28T00:28:39;12.30;99.90
19799;DHT22;10059;59.850;10.454;2023-07-28T00:31:06;12.40;99.90
19799;DHT22;10059;59.850;10.454;2023-07-28T00:33:34;12.30;99.90
19799;DHT22;10059;59.850;10.454;2023-07-28T00:36:00;12.40;99.90
19799;DHT22;10059;59.850;10.454;2023-07-28T00:38:27;12.30;99.90
19799;DHT22;10059;59.850;10.454;2023-07-28T00:40:54;12.30;99.90
19799;DHT22;10059;59.850;10.454;2023-07-28T00:43:21;12.30;99.90
19799;DHT22;10059;59.850;10.454;2023-07-28T00:45:48;12.30;99.90
19799;DHT22;10059;59.850;10.454;2023-07-28T00:48:16;12.40;99.90
19799;DHT22;10059;59.850;10.454;2023-07-28T00:50:47;12.40;99.90
19799;DHT22;10059;59.850;10.454;2023-07-28T00:53:14;12.30;99.90
19799;DHT22;10059;59.850;10.454;2023-07-28T00:55:41;12.30;99.90
19799;DHT22;10059;59.850;10.454;2023-07-28T00:58:08;12.30;99.90
19799;DHT22;10059;59.850;10.454;2023-07-28T01:00:35;12.30;99.90
19799;DHT22;10059;59.850;10.454;2023-07-28T01:03:03;12.10;99.90
19799;DHT22;10059;59.850;10.454;2023-07-28T01:05:33;12.10;99.90
19799;DHT22;10059;59.850;10.454;2023-07-28T01:08:11;12.20;99.90
19799;DHT22;10059;59.850;10.454;2023-07-28T01:10:42;12.30;99.90
19799;DHT22;10059;59.850;10.454;2023-07-28T01:13:09;12.30;99.90
19799;DHT22;10059;59.850;10.454;2023-07-28T01:15:36;12.30;99.90
19799;DHT22;10059;59.850;10.454;2023-07-28T01:18:03;12.30;99.90
19799;DHT22;10059;59.850;10.454;2023-07-28T01:20:31;12.30;99.90
19799;DHT22;10059;59.850;10.454;2023-07-28T01:23:08;12.30;99.90
19799;DHT22;10059;59.850;10.454;2023-07-28T01:25:54;12.40;99.90
19799;DHT22;10059;59.850;10.454;2023-07-28T01:28:24;12.50;99.90
19799;DHT22;10059;59.850;10.454;2023-07-28T01:30:51;12.30;99.90
19799;DHT22;10059;59.850;10.454;2023-07-28T01:33:18;12.30;99.90
19799;DHT22;10059;59.850;10.454;2023-07-28T01:35:45;12.30;99.90
19799;DHT22;10059;59.850;10.454;2023-07-28T01:38:12;12.40;99.90
19799;DHT22;10059;59.850;10.454;2023-07-28T01:40:39;12.50;99.90
19799;DHT22;10059;59.850;10.454;2023-07-28T01:43:06;12.60;99.90
19799;DHT22;10059;59.850;10.454;2023-07-28T01:45:34;12.80;99.90
19799;DHT22;10059;59.850;10.454;2023-07-28T01:48:01;12.70;99.90
19799;DHT22;10059;59.850;10.454;2023-07-28T01:50:28;12.70;99.90
19799;DHT22;10059;59.850;10.454;2023-07-28T01:52:55;12.70;99.90
19799;DHT22;10059;59.850;10.454;2023-07-28T01:55:22;12.60;99.90
19799;DHT22;10059;59.850;10.454;2023-07-28T01:57:55;12.60;99.90
19799;DHT22;10059;59.850;10.454;2023-07-28T02:00:23;12.60;99.90
19799;DHT22;10059;59.850;10.454;2023-07-28T02:02:52;12.60;99.90
19799;DHT22;10059;59.850;10.454;2023-07-28T02:05:19;12.70;99.90
19799;DHT22;10059;59.850;10.454;2023-07-28T02:07:47;12.80;99.90
19799;DHT22;10059;59.850;10.454;2023-07-28T02:10:13;12.80;99.90
19799;DHT22;10059;59.850;10.454;2023-07-28T02:12:40;12.70;99.90
19799;DHT22;10059;59.850;10.454;2023-07-28T02:15:08;12.60;99.90
19799;DHT22;10059;59.850;10.454;2023-07-28T02:17:35;12.70;99.90
19799;DHT22;10059;59.850;10.454;2023-07-28T02:20:04;12.70;99.90
19799;DHT22;10059;59.850;10.454;2023-07-28T02:22:31;12.60;99.90
19799;DHT22;10059;59.850;10.454;2023-07-28T02:24:58;12.70;99.90
19799;DHT22;10059;59.850;10.454;2023-07-28T02:27:27;12.80;99.90
19799;DHT22;10059;59.850;10.454;2023-07-28T02:29:54;12.80;99.90
19799;DHT22;10059;59.850;10.454;2023-07-28T02:32:21;12.70;99.90
19799;DHT22;10059;59.850;10.454;2023-07-28T02:34:48;12.80;99.90
19799;DHT22;10059;59.850;10.454;2023-07-28T02:37:16;12.90;99.90
19799;DHT22;10059;59.850;10.454;2023-07-28T02:39:43;12.90;99.90
19799;DHT22;10059;59.850;10.454;2023-07-28T02:42:11;13.10;99.90
19799;DHT22;10059;59.850;10.454;2023-07-28T02:44:38;13.10;99.90
19799;DHT22;10059;59.850;10.454;2023-07-28T02:47:05;13.00;99.90
19799;DHT22;10059;59.850;10.454;2023-07-28T02:49:32;13.10;99.90
19799;DHT22;10059;59.850;10.454;2023-07-28T02:51:59;13.30;99.90
19799;DHT22;10059;59.850;10.454;2023-07-28T02:54:27;13.30;99.90
19799;DHT22;10059;59.850;10.454;2023-07-28T02:56:54;13.20;99.90
19799;DHT22;10059;59.850;10.454;2023-07-28T02:59:21;13.20;99.90
19799;DHT22;10059;59.850;10.454;2023-07-28T03:01:49;13.20;99.90
19799;DHT22;10059;59.850;10.454;2023-07-28T03:04:17;13.30;99.90
19799;DHT22;10059;59.850;10.454;2023-07-28T03:06:45;13.30;99.90
19799;DHT22;10059;59.850;10.454;2023-07-28T03:09:12;13.30;99.90
19799;DHT22;10059;59.850;10.454;2023-07-28T03:11:41;13.30;99.90
19799;DHT22;10059;59.850;10.454;2023-07-28T03:14:08;13.20;99.90
19799;DHT22;10059;59.850;10.454;2023-07-28T03:16:34;13.10;99.90
19799;DHT22;10059;59.850;10.454;2023-07-28T03:19:01;13.10;99.90
19799;DHT22;10059;59.850;10.454;2023-07-28T03:21:29;13.00;99.90
19799;DHT22;10059;59.850;10.454;2023-07-28T03:23:56;13.10;99.90
19799;DHT22;10059;59.850;10.454;2023-07-28T03:26:23;13.10;99.90
19799;DHT22;10059;59.850;10.454;2023-07-28T03:28:51;13.20;99.90
19799;DHT22;10059;59.850;10.454;2023-07-28T03:31:18;13.20;99.90
19799;DHT22;10059;59.850;10.454;2023-07-28T03:33:45;13.30;99.90
19799;DHT22;10059;59.850;10.454;2023-07-28T03:36:12;13.20;99.90
19799;DHT22;10059;59.850;10.454;2023-07-28T03:38:39;13.20;99.90
19799;DHT22;10059;59.850;10.454;2023-07-28T03:41:06;13.20;99.90
19799;DHT22;10059;59.850;10.454;2023-07-28T03:43:33;13.20;99.90
19799;DHT22;10059;59.850;10.454;2023-07-28T03:46:02;13.30;99.90
19799;DHT22;10059;59.850;10.454;2023-07-28T03:48:28;13.40;99.90
19799;DHT22;10059;59.850;10.454;2023-07-28T03:50:55;13.40;99.90
19799;DHT22;10059;59.850;10.454;2023-07-28T03:53:22;13.40;99.90
19799;DHT22;10059;59.850;10.454;2023-07-28T03:55:49;13.50;99.90
19799;DHT22;10059;59.850;10.454;2023-07-28T03:58:16;13.60;99.90
19799;DHT22;10059;59.850;10.454;2023-07-28T04:00:43;13.60;99.90
19799;DHT22;10059;59.850;10.454;2023-07-28T04:03:11;13.70;99.90
19799;DHT22;10059;59.850;10.454;2023-07-28T04:05:38;13.60;99.90
19799;DHT22;10059;59.850;10.454;2023-07-28T04:08:05;13.80;99.90
19799;DHT22;10059;59.850;10.454;2023-07-28T04:10:32;13.70;99.90
19799;DHT22;10059;59.850;10.454;2023-07-28T04:12:59;13.60;99.90
19799;DHT22;10059;59.850;10.454;2023-07-28T04:15:25;13.50;99.90
19799;DHT22;10059;59.850;10.454;2023-07-28T04:17:52;13.50;99.90
19799;DHT22;10059;59.850;10.454;2023-07-28T04:20:21;13.50;99.90
19799;DHT22;10059;59.850;10.454;2023-07-28T04:22:47;13.70;99.90
19799;DHT22;10059;59.850;10.454;2023-07-28T04:25:14;13.70;99.90
19799;DHT22;10059;59.850;10.454;2023-07-28T04:27:41;13.70;99.90
19799;DHT22;10059;59.850;10.454;2023-07-28T04:30:09;13.70;99.90
19799;DHT22;10059;59.850;10.454;2023-07-28T04:32:36;13.70;99.90
19799;DHT22;10059;59.850;10.454;2023-07-28T04:35:03;13.80;99.90
19799;DHT22;10059;59.850;10.454;2023-07-28T04:37:32;13.80;99.90
19799;DHT22;10059;59.850;10.454;2023-07-28T04:39:59;13.80;99.90
19799;DHT22;10059;59.850;10.454;2023-07-28T04:42:26;13.80;99.90
19799;DHT22;10059;59.850;10.454;2023-07-28T04:44:52;13.80;99.90
19799;DHT22;10059;59.850;10.454;2023-07-28T04:47:19;13.90;99.90
19799;DHT22;10059;59.850;10.454;2023-07-28T04:49:46;13.80;99.90
19799;DHT22;10059;59.850;10.454;2023-07-28T04:52:13;13.80;99.90
19799;DHT22;10059;59.850;10.454;2023-07-28T04:54:41;13.80;99.90
19799;DHT22;10059;59.850;10.454;2023-07-28T04:57:08;13.90;99.90
19799;DHT22;10059;59.850;10.454;2023-07-28T04:59:35;13.80;99.90
19799;DHT22;10059;59.850;10.454;2023-07-28T05:02:01;13.70;99.90
19799;DHT22;10059;59.850;10.454;2023-07-28T05:04:28;13.70;99.90
19799;DHT22;10059;59.850;10.454;2023-07-28T05:06:55;13.70;99.90
19799;DHT22;10059;59.850;10.454;2023-07-28T05:09:22;13.80;99.90
19799;DHT22;10059;59.850;10.454;2023-07-28T05:11:50;13.90;99.90
19799;DHT22;10059;59.850;10.454;2023-07-28T05:14:17;14.00;99.90
19799;DHT22;10059;59.850;10.454;2023-07-28T05:16:44;14.00;99.90
19799;DHT22;10059;59.850;10.454;2023-07-28T05:19:12;14.00;99.90
19799;DHT22;10059;59.850;10.454;2023-07-28T05:21:39;14.00;99.90
19799;DHT22;10059;59.850;10.454;2023-07-28T05:24:06;14.10;99.90
19799;DHT22;10059;59.850;10.454;2023-07-28T05:26:32;14.00;99.90
19799;DHT22;10059;59.850;10.454;2023-07-28T05:29:00;13.90;99.90
19799;DHT22;10059;59.850;10.454;2023-07-28T05:31:27;13.90;99.90
19799;DHT22;10059;59.850;10.454;2023-07-28T05:33:54;14.00;99.90
19799;DHT22;10059;59.850;10.454;2023-07-28T05:36:21;14.00;99.90
19799;DHT22;10059;59.850;10.454;2023-07-28T05:38:48;14.00;99.90
19799;DHT22;10059;59.850;10.454;2023-07-28T05:41:15;14.10;99.90
19799;DHT22;10059;59.850;10.454;2023-07-28T05:43:42;14.20;99.90
19799;DHT22;10059;59.850;10.454;2023-07-28T05:46:10;14.10;99.90
19799;DHT22;10059;59.850;10.454;2023-07-28T05:48:37;14.10;99.90
19799;DHT22;10059;59.850;10.454;2023-07-28T05:51:04;14.10;99.90
19799;DHT22;10059;59.850;10.454;2023-07-28T05:53:31;14.20;99.90
19799;DHT22;10059;59.850;10.454;2023-07-28T05:55:58;14.00;99.90
19799;DHT22;10059;59.850;10.454;2023-07-28T05:58:25;13.90;99.90
19799;DHT22;10059;59.850;10.454;2023-07-28T06:00:51;13.90;99.90
19799;DHT22;10059;59.850;10.454;2023-07-28T06:03:20;14.00;99.90
19799;DHT22;10059;59.850;10.454;2023-07-28T06:05:47;14.20;99.90
19799;DHT22;10059;59.850;10.454;2023-07-28T06:08:14;14.30;99.90
19799;DHT22;10059;59.850;10.454;2023-07-28T06:10:40;14.40;99.90
19799;DHT22;10059;59.850;10.454;2023-07-28T06:13:07;14.50;99.90
19799;DHT22;10059;59.850;10.454;2023-07-28T06:15:34;14.50;99.90
19799;DHT22;10059;59.850;10.454;2023-07-28T06:18:02;14.50;99.90
19799;DHT22;10059;59.850;10.454;2023-07-28T06:20:30;14.50;99.90
19799;DHT22;10059;59.850;10.454;2023-07-28T06:22:57;14.60;99.90
19799;DHT22;10059;59.850;10.454;2023-07-28T06:25:24;14.70;99.90
19799;DHT22;10059;59.850;10.454;2023-07-28T06:27:51;14.70;99.90
19799;DHT22;10059;59.850;10.454;2023-07-28T06:30:18;14.80;99.90
19799;DHT22;10059;59.850;10.454;2023-07-28T06:32:44;14.90;99.90
19799;DHT22;10059;59.850;10.454;2023-07-28T06:35:11;14.80;99.90
19799;DHT22;10059;59.850;10.454;2023-07-28T06:37:39;14.70;99.90
19799;DHT22;10059;59.850;10.454;2023-07-28T06:40:07;14.70;99.90
19799;DHT22;10059;59.850;10.454;2023-07-28T06:42:35;14.70;99.90
19799;DHT22;10059;59.850;10.454;2023-07-28T06:45:03;14.80;99.90
19799;DHT22;10059;59.850;10.454;2023-07-28T06:47:30;14.80;99.90
19799;DHT22;10059;59.850;10.454;2023-07-28T06:49:57;14.70;99.90
19799;DHT22;10059;59.850;10.454;2023-07-28T06:52:24;14.60;99.90
19799;DHT22;10059;59.850;10.454;2023-07-28T06:54:52;14.80;99.90
19799;DHT22;10059;59.850;10.454;2023-07-28T06:57:20;14.80;99.90
19799;DHT22;10059;59.850;10.454;2023-07-28T06:59:47;14.80;99.90
19799;DHT22;10059;59.850;10.454;2023-07-28T07:02:14;14.80;99.90
19799;DHT22;10059;59.850;10.454;2023-07-28T07:04:41;14.80;99.90
19799;DHT22;10059;59.850;10.454;2023-07-28T07:07:08;14.70;99.90
19799;DHT22;10059;59.850;10.454;2023-07-28T07:09:35;14.60;99.90
19799;DHT22;10059;59.850;10.454;2023-07-28T07:12:03;14.50;99.90
19799;DHT22;10059;59.850;10.454;2023-07-28T07:14:31;14.60;99.90
19799;DHT22;10059;59.850;10.454;2023-07-28T07:16:59;14.60;99.90
19799;DHT22;10059;59.850;10.454;2023-07-28T07:19:27;14.70;99.90
19799;DHT22;10059;59.850;10.454;2023-07-28T07:21:54;14.50;99.90
19799;DHT22;10059;59.850;10.454;2023-07-28T07:24:21;14.40;99.90
19799;DHT22;10059;59.850;10.454;2023-07-28T07:26:48;14.30;99.90
19799;DHT22;10059;59.850;10.454;2023-07-28T07:29:17;14.20;99.90
19799;DHT22;10059;59.850;10.454;2023-07-28T07:31:44;14.10;99.90
19799;DHT22;10059;59.850;10.454;2023-07-28T07:34:11;14.20;99.90
19799;DHT22;10059;59.850;10.454;2023-07-28T07:36:38;14.30;99.90
19799;DHT22;10059;59.850;10.454;2023-07-28T07:39:05;14.10;99.90
19799;DHT22;10059;59.850;10.454;2023-07-28T07:41:33;13.90;99.90
19799;DHT22;10059;59.850;10.454;2023-07-28T07:44:00;14.00;99.90
19799;DHT22;10059;59.850;10.454;2023-07-28T07:46:29;13.90;99.90
19799;DHT22;10059;59.850;10.454;2023-07-28T07:48:56;13.90;99.90
19799;DHT22;10059;59.850;10.454;2023-07-28T07:51:23;13.90;99.90
19799;DHT22;10059;59.850;10.454;2023-07-28T07:53:50;13.80;99.90
19799;DHT22;10059;59.850;10.454;2023-07-28T07:56:17;13.90;99.90
19799;DHT22;10059;59.850;10.454;2023-07-28T07:58:44;13.80;99.90
19799;DHT22;10059;59.850;10.454;2023-07-28T08:01:10;13.90;99.90
19799;DHT22;10059;59.850;10.454;2023-07-28T08:03:42;14.00;99.90
19799;DHT22;10059;59.850;10.454;2023-07-28T08:06:09;14.00;99.90
19799;DHT22;10059;59.850;10.454;2023-07-28T08:08:37;14.00;99.90
19799;DHT22;10059;59.850;10.454;2023-07-28T08:11:03;14.00;99.90
19799;DHT22;10059;59.850;10.454;2023-07-28T08:13:30;14.00;99.90
19799;DHT22;10059;59.850;10.454;2023-07-28T08:15:57;14.10;99.90
19799;DHT22;10059;59.850;10.454;2023-07-28T08:18:24;14.20;99.90
19799;DHT22;10059;59.850;10.454;2023-07-28T08:20:52;14.20;99.90
19799;DHT22;10059;59.850;10.454;2023-07-28T08:23:19;14.10;99.90
19799;DHT22;10059;59.850;10.454;2023-07-28T08:25:46;14.20;99.90
19799;DHT22;10059;59.850;10.454;2023-07-28T08:28:13;14.30;99.90
19799;DHT22;10059;59.850;10.454;2023-07-28T08:30:40;14.40;99.90
19799;DHT22;10059;59.850;10.454;2023-07-28T08:33:07;14.50;99.90
19799;DHT22;10059;59.850;10.454;2023-07-28T08:35:34;14.70;99.90
19799;DHT22;10059;59.850;10.454;2023-07-28T08:38:02;14.80;99.90
19799;DHT22;10059;59.850;10.454;2023-07-28T08:40:29;14.80;99.90
19799;DHT22;10059;59.850;10.454;2023-07-28T08:42:56;14.80;99.90
19799;DHT22;10059;59.850;10.454;2023-07-28T08:45:23;14.90;99.90
19799;DHT22;10059;59.850;10.454;2023-07-28T08:47:51;14.60;99.90
19799;DHT22;10059;59.850;10.454;2023-07-28T08:50:18;14.60;99.90
19799;DHT22;10059;59.850;10.454;2023-07-28T08:52:45;14.80;99.90
19799;DHT22;10059;59.850;10.454;2023-07-28T08:55:13;14.80;99.90
19799;DHT22;10059;59.850;10.454;2023-07-28T08:57:40;14.90;99.90
19799;DHT22;10059;59.850;10.454;2023-07-28T09:00:08;14.80;99.90
19799;DHT22;10059;59.850;10.454;2023-07-28T09:02:36;14.80;99.90
19799;DHT22;10059;59.850;10.454;2023-07-28T09:05:04;14.80;99.90
19799;DHT22;10059;59.850;10.454;2023-07-28T09:07:34;14.90;99.90
19799;DHT22;10059;59.850;10.454;2023-07-28T09:10:02;15.00;99.90
19799;DHT22;10059;59.850;10.454;2023-07-28T09:12:32;15.20;99.90
19799;DHT22;10059;59.850;10.454;2023-07-28T09:14:59;15.20;99.90
19799;DHT22;10059;59.850;10.454;2023-07-28T09:17:26;15.20;99.90
19799;DHT22;10059;59.850;10.454;2023-07-28T09:19:53;15.60;99.90
19799;DHT22;10059;59.850;10.454;2023-07-28T09:22:21;15.90;99.90
19799;DHT22;10059;59.850;10.454;2023-07-28T09:24:48;16.20;99.90
19799;DHT22;10059;59.850;10.454;2023-07-28T09:27:21;16.40;99.90
19799;DHT22;10059;59.850;10.454;2023-07-28T09:29:50;16.60;99.90
19799;DHT22;10059;59.850;10.454;2023-07-28T09:32:27;16.90;99.90
19799;DHT22;10059;59.850;10.454;2023-07-28T09:35:09;17.40;99.90
19799;DHT22;10059;59.850;10.454;2023-07-28T09:37:38;17.60;99.90
19799;DHT22;10059;59.850;10.454;2023-07-28T09:40:07;17.90;99.90
19799;DHT22;10059;59.850;10.454;2023-07-28T09:42:37;18.00;99.90
19799;DHT22;10059;59.850;10.454;2023-07-28T09:45:06;17.90;99.90
19799;DHT22;10059;59.850;10.454;2023-07-28T09:47:34;17.80;99.90
19799;DHT22;10059;59.850;10.454;2023-07-28T09:50:03;17.60;99.90
19799;DHT22;10059;59.850;10.454;2023-07-28T09:52:33;17.50;99.90
19799;DHT22;10059;59.850;10.454;2023-07-28T09:55:06;17.40;99.90
19799;DHT22;10059;59.850;10.454;2023-07-28T09:57:38;17.60;99.90
19799;DHT22;10059;59.850;10.454;2023-07-28T10:00:09;17.70;99.90
19799;DHT22;10059;59.850;10.454;2023-07-28T10:02:37;17.90;99.90
19799;DHT22;10059;59.850;10.454;2023-07-28T10:05:06;18.20;99.90
19799;DHT22;10059;59.850;10.454;2023-07-28T10:07:34;18.00;99.90
19799;DHT22;10059;59.850;10.454;2023-07-28T10:10:03;18.20;99.90
19799;DHT22;10059;59.850;10.454;2023-07-28T10:12:29;17.80;99.90
19799;DHT22;10059;59.850;10.454;2023-07-28T10:15:03;17.80;99.90
19799;DHT22;10059;59.850;10.454;2023-07-28T10:17:32;17.80;99.90
19799;DHT22;10059;59.850;10.454;2023-07-28T10:20:02;17.80;99.90
19799;DHT22;10059;59.850;10.454;2023-07-28T10:22:32;18.20;99.90
19799;DHT22;10059;59.850;10.454;2023-07-28T10:25:01;18.40;99.90
19799;DHT22;10059;59.850;10.454;2023-07-28T10:27:29;18.40;99.90
19799;DHT22;10059;59.850;10.454;2023-07-28T10:29:57;18.60;99.90
19799;DHT22;10059;59.850;10.454;2023-07-28T10:32:28;18.90;99.90
19799;DHT22;10059;59.850;10.454;2023-07-28T10:35:06;19.30;99.90
19799;DHT22;10059;59.850;10.454;2023-07-28T10:37:33;19.50;99.90
19799;DHT22;10059;59.850;10.454;2023-07-28T10:40:22;19.70;99.90
19799;DHT22;10059;59.850;10.454;2023-07-28T10:42:49;19.80;99.90
19799;DHT22;10059;59.850;10.454;2023-07-28T10:45:16;19.60;99.90
19799;DHT22;10059;59.850;10.454;2023-07-28T10:47:44;20.20;99.90
19799;DHT22;10059;59.850;10.454;2023-07-28T10:50:13;20.20;99.90
19799;DHT22;10059;59.850;10.454;2023-07-28T10:52:40;20.50;99.90
19799;DHT22;10059;59.850;10.454;2023-07-28T10:55:12;20.50;99.90
19799;DHT22;10059;59.850;10.454;2023-07-28T10:57:41;20.70;99.90
19799;DHT22;10059;59.850;10.454;2023-07-28T11:00:09;20.80;99.90
19799;DHT22;10059;59.850;10.454;2023-07-28T11:02:38;20.60;99.90
19799;DHT22;10059;59.850;10.454;2023-07-28T11:05:09;20.50;99.90
19799;DHT22;10059;59.850;10.454;2023-07-28T11:07:38;20.00;99.90
19799;DHT22;10059;59.850;10.454;2023-07-28T11:10:07;20.10;99.90
19799;DHT22;10059;59.850;10.454;2023-07-28T11:12:34;19.90;99.90
19799;DHT22;10059;59.850;10.454;2023-07-28T11:15:01;19.50;99.90
19799;DHT22;10059;59.850;10.454;2023-07-28T11:17:28;19.30;99.90
19799;DHT22;10059;59.850;10.454;2023-07-28T11:19:55;19.10;99.90
19799;DHT22;10059;59.850;10.454;2023-07-28T11:22:22;19.20;99.90
19799;DHT22;10059;59.850;10.454;2023-07-28T11:24:52;19.40;99.90
19799;DHT22;10059;59.850;10.454;2023-07-28T11:27:19;19.20;99.90
19799;DHT22;10059;59.850;10.454;2023-07-28T11:29:46;19.50;99.90
19799;DHT22;10059;59.850;10.454;2023-07-28T11:32:15;19.40;99.90
19799;DHT22;10059;59.850;10.454;2023-07-28T11:34:43;19.00;99.90
19799;DHT22;10059;59.850;10.454;2023-07-28T11:37:10;19.00;99.90
19799;DHT22;10059;59.850;10.454;2023-07-28T11:39:39;19.10;99.90
19799;DHT22;10059;59.850;10.454;2023-07-28T11:42:09;19.80;99.90
19799;DHT22;10059;59.850;10.454;2023-07-28T11:44:36;20.60;99.90
19799;DHT22;10059;59.850;10.454;2023-07-28T11:47:05;21.00;99.90
19799;DHT22;10059;59.850;10.454;2023-07-28T11:49:32;20.70;99.90
19799;DHT22;10059;59.850;10.454;2023-07-28T11:51:59;21.00;99.90
19799;DHT22;10059;59.850;10.454;2023-07-28T11:54:26;20.90;99.90
19799;DHT22;10059;59.850;10.454;2023-07-28T11:56:55;21.10;99.90
19799;DHT22;10059;59.850;10.454;2023-07-28T11:59:23;21.00;99.90
19799;DHT22;10059;59.850;10.454;2023-07-28T12:01:58;21.20;99.90
19799;DHT22;10059;59.850;10.454;2023-07-28T12:04:26;21.40;99.90
19799;DHT22;10059;59.850;10.454;2023-07-28T12:07:04;21.10;99.90
19799;DHT22;10059;59.850;10.454;2023-07-28T12:09:32;21.50;99.90
19799;DHT22;10059;59.850;10.454;2023-07-28T12:11:59;21.90;99.90
19799;DHT22;10059;59.850;10.454;2023-07-28T12:14:34;22.30;99.90
19799;DHT22;10059;59.850;10.454;2023-07-28T12:17:01;21.80;99.90
19799;DHT22;10059;59.850;10.454;2023-07-28T12:19:28;22.00;99.90
19799;DHT22;10059;59.850;10.454;2023-07-28T12:21:55;22.30;99.90
19799;DHT22;10059;59.850;10.454;2023-07-28T12:24:23;23.30;99.90
19799;DHT22;10059;59.850;10.454;2023-07-28T12:26:50;24.10;99.90
19799;DHT22;10059;59.850;10.454;2023-07-28T12:29:17;23.90;99.90
19799;DHT22;10059;59.850;10.454;2023-07-28T12:31:45;23.70;99.90
19799;DHT22;10059;59.850;10.454;2023-07-28T12:34:12;23.70;99.90
19799;DHT22;10059;59.850;10.454;2023-07-28T12:36:39;23.70;99.90
19799;DHT22;10059;59.850;10.454;2023-07-28T12:39:06;23.40;99.90
19799;DHT22;10059;59.850;10.454;2023-07-28T12:41:33;23.00;99.90
19799;DHT22;10059;59.850;10.454;2023-07-28T12:44:00;22.80;99.90
19799;DHT22;10059;59.850;10.454;2023-07-28T12:46:27;21.90;99.90
19799;DHT22;10059;59.850;10.454;2023-07-28T12:48:55;22.20;99.90
19799;DHT22;10059;59.850;10.454;2023-07-28T12:51:21;22.40;99.90
19799;DHT22;10059;59.850;10.454;2023-07-28T12:53:48;22.10;99.90
19799;DHT22;10059;59.850;10.454;2023-07-28T12:56:15;22.30;99.90
19799;DHT22;10059;59.850;10.454;2023-07-28T12:58:42;21.80;99.90
19799;DHT22;10059;59.850;10.454;2023-07-28T13:01:09;21.80;99.90
19799;DHT22;10059;59.850;10.454;2023-07-28T13:03:37;21.60;99.90
19799;DHT22;10059;59.850;10.454;2023-07-28T13:06:06;22.00;99.90
19799;DHT22;10059;59.850;10.454;2023-07-28T13:08:32;22.40;99.90
19799;DHT22;10059;59.850;10.454;2023-07-28T13:10:59;22.90;99.90
19799;DHT22;10059;59.850;10.454;2023-07-28T13:13:26;22.60;99.90
19799;DHT22;10059;59.850;10.454;2023-07-28T13:15:55;22.70;99.90
19799;DHT22;10059;59.850;10.454;2023-07-28T13:18:23;22.60;99.90
19799;DHT22;10059;59.850;10.454;2023-07-28T13:20:50;21.30;99.90
19799;DHT22;10059;59.850;10.454;2023-07-28T13:23:18;21.40;99.90
19799;DHT22;10059;59.850;10.454;2023-07-28T13:25:45;21.50;99.90
19799;DHT22;10059;59.850;10.454;2023-07-28T13:28:12;21.30;99.90
19799;DHT22;10059;59.850;10.454;2023-07-28T13:30:40;21.30;99.90
19799;DHT22;10059;59.850;10.454;2023-07-28T13:33:07;21.50;99.90
19799;DHT22;10059;59.850;10.454;2023-07-28T13:35:34;21.50;99.90
19799;DHT22;10059;59.850;10.454;2023-07-28T13:38:00;21.40;99.90
19799;DHT22;10059;59.850;10.454;2023-07-28T13:40:29;21.90;99.90
19799;DHT22;10059;59.850;10.454;2023-07-28T13:42:55;22.10;99.90
19799;DHT22;10059;59.850;10.454;2023-07-28T13:45:22;22.20;99.90
19799;DHT22;10059;59.850;10.454;2023-07-28T13:47:49;22.00;99.90
19799;DHT22;10059;59.850;10.454;2023-07-28T13:50:16;21.20;99.90
19799;DHT22;10059;59.850;10.454;2023-07-28T13:52:43;21.30;99.90
19799;DHT22;10059;59.850;10.454;2023-07-28T13:55:09;21.50;99.90
19799;DHT22;10059;59.850;10.454;2023-07-28T13:57:38;21.50;99.90
19799;DHT22;10059;59.850;10.454;2023-07-28T14:00:06;21.60;99.90
19799;DHT22;10059;59.850;10.454;2023-07-28T14:02:34;21.60;99.90
19799;DHT22;10059;59.850;10.454;2023-07-28T14:05:01;21.10;99.90
19799;DHT22;10059;59.850;10.454;2023-07-28T14:07:28;20.60;99.90
19799;DHT22;10059;59.850;10.454;2023-07-28T14:09:55;20.40;99.90
19799;DHT22;10059;59.850;10.454;2023-07-28T14:12:22;20.30;99.90
19799;DHT22;10059;59.850;10.454;2023-07-28T14:14:50;20.30;99.90
19799;DHT22;10059;59.850;10.454;2023-07-28T14:17:17;20.20;99.90
19799;DHT22;10059;59.850;10.454;2023-07-28T14:19:44;20.60;99.90
19799;DHT22;10059;59.850;10.454;2023-07-28T14:22:11;20.80;99.90
19799;DHT22;10059;59.850;10.454;2023-07-28T14:24:38;21.00;99.90
19799;DHT22;10059;59.850;10.454;2023-07-28T14:27:05;21.00;99.90
19799;DHT22;10059;59.850;10.454;2023-07-28T14:29:32;21.20;99.90
19799;DHT22;10059;59.850;10.454;2023-07-28T14:32:00;21.50;99.90
19799;DHT22;10059;59.850;10.454;2023-07-28T14:34:27;21.30;99.90
19799;DHT22;10059;59.850;10.454;2023-07-28T14:36:54;21.70;99.90
19799;DHT22;10059;59.850;10.454;2023-07-28T14:39:21;21.70;99.90
19799;DHT22;10059;59.850;10.454;2023-07-28T14:41:48;21.80;99.90
19799;DHT22;10059;59.850;10.454;2023-07-28T14:44:14;22.20;99.90
19799;DHT22;10059;59.850;10.454;2023-07-28T14:46:41;22.50;99.90
19799;DHT22;10059;59.850;10.454;2023-07-28T14:49:10;22.40;99.90
19799;DHT22;10059;59.850;10.454;2023-07-28T14:51:36;22.50;99.90
19799;DHT22;10059;59.850;10.454;2023-07-28T14:54:03;22.30;99.90
19799;DHT22;10059;59.850;10.454;2023-07-28T14:56:31;22.40;99.90
19799;DHT22;10059;59.850;10.454;2023-07-28T14:58:58;22.40;99.90
19799;DHT22;10059;59.850;10.454;2023-07-28T15:01:26;22.30;99.90
19799;DHT22;10059;59.850;10.454;2023-07-28T15:03:53;22.20;99.90
19799;DHT22;10059;59.850;10.454;2023-07-28T15:06:21;22.10;99.90
19799;DHT22;10059;59.850;10.454;2023-07-28T15:08:48;22.10;99.90
19799;DHT22;10059;59.850;10.454;2023-07-28T15:11:15;22.10;99.90
19799;DHT22;10059;59.850;10.454;2023-07-28T15:13:43;21.70;99.90
19799;DHT22;10059;59.850;10.454;2023-07-28T15:16:10;21.80;99.90
19799;DHT22;10059;59.850;10.454;2023-07-28T15:18:38;21.60;99.90